Time;durP1;ratioP1;P1;durP2;ratioP2;P2;SDS_P1;SDS_P2;PMS_P1;PMS_P2;Temp;Humidity;BMP_temperature;BMP_pressure;BME280_temperature;BME280_humidity;BME280_pressure;Samples;Min_cycle;Max_cycle;Signal;HPM_P1;HPM_P2
2023/05/05 00:00:14;;;;;;;;;;;12.10;80.50;;;11.12;73.95;96695.28;4954288;29;19922;-89
2023/05/05 00:02:42;;;;;;;;;;;12.10;80.40;;;11.13;74.26;96691.44;4938873;29;19922;-88
2023/05/05 00:05:11;;;;;;;;;;;12.10;80.40;;;11.15;73.89;96699.41;4954723;29;19930;-88
2023/05/05 00:07:39;;;;;;;;;;;12.10;80.40;;;11.13;74.18;96691.44;4954596;29;19950;-89
2023/05/05 00:10:08;;;;;;;;;;;12.10;80.40;;;11.12;74.26;96691.72;4954295;29;19923;-87
2023/05/05 00:12:36;;;;;;;;;;;12.10;80.50;;;11.15;74.11;96683.78;4938596;29;19922;-88
2023/05/05 00:15:05;;;;;;;;;;;12.10;80.40;;;11.13;74.24;96685.16;4938764;29;19922;-89
2023/05/05 00:17:33;;;;;;;;;;;12.10;80.50;;;11.14;74.08;96686.81;4938610;29;19990;-88
2023/05/05 00:20:01;;;;;;;;;;;12.10;80.40;;;11.15;74.31;96688.47;4938092;29;19922;-89
2023/05/05 00:22:31;;;;;;;;;;;12.10;80.40;;;11.15;73.82;96685.72;4938850;29;19928;-89
2023/05/05 00:24:59;;;;;;;;;;;12.10;80.50;;;11.12;73.93;96681.56;4938595;29;19922;-89
2023/05/05 00:27:27;;;;;;;;;;;12.10;80.40;;;11.15;73.83;96694.75;4938561;29;20236;-90
2023/05/05 00:29:55;;;;;;;;;;;12.10;80.40;;;11.14;74.25;96686.81;4938005;29;19929;-88
2023/05/05 00:32:23;;;;;;;;;;;12.10;80.40;;;11.15;74.11;96688.47;4938422;29;19929;-89
2023/05/05 00:34:51;;;;;;;;;;;12.10;80.40;;;11.15;74.30;96680.25;4938513;29;19922;-89
2023/05/05 00:37:19;;;;;;;;;;;12.10;80.50;;;11.14;74.06;96678.59;4938093;28;19923;-89
2023/05/05 00:39:48;;;;;;;;;;;12.10;80.40;;;11.13;73.90;96674.19;4969842;28;19944;-88
2023/05/05 00:42:16;;;;;;;;;;;12.10;80.40;;;11.15;74.04;96678.31;4954131;29;19923;-89
2023/05/05 00:44:45;;;;;;;;;;;12.10;80.40;;;11.13;73.95;96679.66;4937941;29;19922;-89
2023/05/05 00:47:13;;;;;;;;;;;12.10;80.40;;;11.14;74.10;96681.31;4938016;28;19929;-88
2023/05/05 00:49:41;;;;;;;;;;;12.10;80.40;;;11.14;74.22;96681.31;4953482;29;19923;-89
2023/05/05 00:52:09;;;;;;;;;;;12.10;80.40;;;11.13;74.17;96680.47;4954086;29;20117;-88
2023/05/05 00:54:37;;;;;;;;;;;12.10;80.40;;;11.13;73.89;96675.00;4938067;29;19929;-89
2023/05/05 00:57:06;;;;;;;;;;;12.10;80.50;;;11.14;74.28;96686.81;4937988;29;20207;-88
2023/05/05 00:59:35;;;;;;;;;;;12.10;80.40;;;11.14;73.78;96681.31;4937571;29;19929;-89
2023/05/05 01:02:03;;;;;;;;;;;12.10;80.40;;;11.13;74.16;96687.88;4938184;29;19922;-89
2023/05/05 01:04:31;;;;;;;;;;;12.10;80.50;;;11.12;74.18;96684.31;4953777;29;19928;-89
2023/05/05 01:07:06;;;;;;;;;;;12.10;80.50;;;11.12;74.27;96683.50;4970096;28;19928;-88
2023/05/05 01:09:40;;;;;;;;;;;12.10;80.40;;;11.11;74.04;96679.91;4937334;29;19987;-88
2023/05/05 01:12:15;;;;;;;;;;;12.10;80.50;;;11.11;74.06;96681.84;4937842;29;20209;-88
2023/05/05 01:14:44;;;;;;;;;;;12.10;80.50;;;11.10;74.52;96682.94;4953759;29;19929;-88
2023/05/05 01:17:16;;;;;;;;;;;12.10;80.50;;;11.10;74.48;96680.19;4937562;29;19929;-88
2023/05/05 01:20:05;;;;;;;;;;;12.10;80.60;;;11.09;74.07;96678.53;4937161;29;19923;-89
2023/05/05 01:22:36;;;;;;;;;;;12.10;80.60;;;11.09;73.95;96673.06;4937636;29;19923;-88
2023/05/05 01:25:28;;;;;;;;;;;12.10;80.70;;;11.08;74.36;96680.47;4937693;29;19922;-88
2023/05/05 01:28:07;;;;;;;;;;;12.00;80.50;;;11.08;74.21;96680.47;4937437;29;19923;-89
2023/05/05 01:30:50;;;;;;;;;;;12.10;80.70;;;11.06;74.22;96685.38;4937082;29;19929;-89
2023/05/05 01:33:23;;;;;;;;;;;12.10;80.70;;;11.04;74.26;96671.09;4937720;29;19922;-89
2023/05/05 01:35:53;;;;;;;;;;;12.00;80.70;;;11.04;74.51;96665.63;4937625;29;19952;-88
2023/05/05 01:38:22;;;;;;;;;;;12.00;80.70;;;11.04;74.61;96671.91;4952599;29;19922;-90
2023/05/05 01:41:03;;;;;;;;;;;12.00;80.60;;;11.05;74.20;96667.28;4937553;29;19930;-89
2023/05/05 01:43:33;;;;;;;;;;;12.00;80.60;;;11.04;74.11;96663.69;4953431;29;19945;-88
2023/05/05 01:46:01;;;;;;;;;;;12.00;80.60;;;11.03;74.39;96669.44;4937460;29;19923;-89
2023/05/05 01:48:32;;;;;;;;;;;12.00;80.60;;;11.06;74.26;96674.41;4952750;29;19933;-89
2023/05/05 01:51:00;;;;;;;;;;;12.00;80.70;;;11.05;74.24;96673.56;4937069;29;19933;-89
2023/05/05 01:53:28;;;;;;;;;;;12.00;80.60;;;11.05;74.16;96679.03;4937396;29;20126;-89
2023/05/05 01:55:56;;;;;;;;;;;12.00;80.60;;;11.06;74.58;96671.66;4937145;29;19929;-89
2023/05/05 01:58:24;;;;;;;;;;;12.00;80.70;;;11.07;74.27;96675.22;4935555;29;19923;-88
2023/05/05 02:00:52;;;;;;;;;;;12.00;80.60;;;11.07;74.42;96667.00;4937081;29;19929;-88
2023/05/05 02:03:21;;;;;;;;;;;12.00;80.60;;;11.07;74.54;96665.09;4937145;29;20114;-87
2023/05/05 02:05:50;;;;;;;;;;;12.00;80.50;;;11.08;74.56;96664.03;4936997;29;20236;-88
2023/05/05 02:08:19;;;;;;;;;;;12.00;80.50;;;11.09;74.46;96664.84;4936455;29;19929;-87
2023/05/05 02:10:47;;;;;;;;;;;12.10;80.60;;;11.09;74.37;96667.56;4952724;29;19922;-88
2023/05/05 02:13:15;;;;;;;;;;;12.00;80.50;;;11.10;74.50;96666.47;4952989;29;19928;-89
2023/05/05 02:15:43;;;;;;;;;;;12.00;80.50;;;11.09;73.92;96662.09;4952893;29;19929;-89
2023/05/05 02:18:11;;;;;;;;;;;12.00;80.40;;;11.08;74.26;96655.81;4952714;29;19923;-87
2023/05/05 02:20:39;;;;;;;;;;;12.10;80.70;;;11.08;74.14;96660.44;4952157;29;19930;-89
2023/05/05 02:23:09;;;;;;;;;;;12.10;80.60;;;11.07;74.38;96658.78;4952775;29;19922;-88
2023/05/05 02:25:38;;;;;;;;;;;12.10;80.60;;;11.05;74.05;96656.31;4952626;29;19971;-89
2023/05/05 02:28:08;;;;;;;;;;;12.00;80.50;;;11.07;74.28;96659.63;4936687;29;19923;-87
2023/05/05 02:30:36;;;;;;;;;;;12.10;80.50;;;11.07;74.14;96654.16;4935985;29;19922;-89
2023/05/05 02:33:06;;;;;;;;;;;12.00;80.50;;;11.08;74.11;96652.22;4952742;29;19923;-89
2023/05/05 02:35:35;;;;;;;;;;;12.00;80.40;;;11.06;74.41;96652.50;4963401;28;19922;-89
2023/05/05 02:38:05;;;;;;;;;;;12.00;80.50;;;11.07;74.18;96656.88;4971967;28;19929;-88
2023/05/05 02:40:39;;;;;;;;;;;12.00;80.40;;;11.05;74.28;96657.13;4955315;28;19922;-89
2023/05/05 02:43:09;;;;;;;;;;;12.00;80.40;;;11.04;74.16;96655.47;4955398;28;19923;-89
2023/05/05 02:45:37;;;;;;;;;;;12.00;80.50;;;11.05;74.21;96657.13;4970864;28;19929;-88
2023/05/05 02:48:06;;;;;;;;;;;12.10;80.60;;;11.06;74.06;96657.97;4971176;28;19922;-88
2023/05/05 02:50:38;;;;;;;;;;;12.00;80.50;;;11.05;74.20;96656.31;4987348;28;19922;-88
2023/05/05 02:53:19;;;;;;;;;;;12.00;80.40;;;11.06;74.46;96657.97;4987989;28;19923;-88
2023/05/05 02:55:51;;;;;;;;;;;12.00;80.40;;;11.07;74.27;96653.31;4987754;28;19922;-88
2023/05/05 02:58:23;;;;;;;;;;;12.10;80.50;;;11.06;74.21;96652.50;4954942;28;19922;-89
2023/05/05 03:00:55;;;;;;;;;;;12.00;80.40;;;11.06;73.95;96663.44;4971493;28;19945;-88
2023/05/05 03:03:25;;;;;;;;;;;12.00;80.40;;;11.05;74.10;96662.59;4971594;28;19936;-87
2023/05/05 03:05:58;;;;;;;;;;;12.00;80.40;;;11.05;74.04;96662.59;4955337;28;19926;-88
2023/05/05 03:08:29;;;;;;;;;;;12.00;80.40;;;11.07;74.21;96667.00;4971835;28;19922;-89
2023/05/05 03:11:00;;;;;;;;;;;12.10;80.50;;;11.05;74.00;96665.34;4974742;28;19922;-88
2023/05/05 03:13:28;;;;;;;;;;;12.00;80.40;;;11.05;74.22;96661.78;4974986;28;19922;-88
2023/05/05 03:15:57;;;;;;;;;;;12.00;80.40;;;11.07;73.99;96672.47;4974879;28;20117;-87
2023/05/05 03:18:27;;;;;;;;;;;12.10;80.40;;;11.04;74.00;96666.44;4974403;28;19922;-89
2023/05/05 03:21:07;;;;;;;;;;;12.00;80.30;;;11.05;74.13;96668.09;4974812;28;20251;-88
2023/05/05 03:23:35;;;;;;;;;;;12.00;80.30;;;11.07;74.09;96669.75;4974836;28;19922;-88
2023/05/05 03:26:07;;;;;;;;;;;12.00;80.30;;;11.05;74.19;96670.81;4974644;28;19928;-88
2023/05/05 03:28:40;;;;;;;;;;;12.00;80.30;;;11.07;74.00;96672.47;4958132;28;19926;-88
2023/05/05 03:31:16;;;;;;;;;;;12.10;80.50;;;11.06;74.09;96671.66;4990719;28;19928;-88
2023/05/05 03:33:44;;;;;;;;;;;12.10;80.40;;;11.04;73.80;96674.66;4974633;28;19929;-89
2023/05/05 03:36:12;;;;;;;;;;;12.10;80.30;;;11.04;73.81;96673.84;4974531;28;19945;-88
2023/05/05 03:38:40;;;;;;;;;;;12.00;80.50;;;11.04;74.10;96677.41;4973959;28;19922;-90
2023/05/05 03:41:11;;;;;;;;;;;12.10;80.30;;;11.07;73.98;96684.28;4974596;28;19937;-89
2023/05/05 03:43:40;;;;;;;;;;;12.00;80.10;;;11.07;73.80;96686.19;4974119;28;20218;-88
2023/05/05 03:46:09;;;;;;;;;;;12.00;80.10;;;11.06;73.90;96682.63;4958116;28;20117;-89
2023/05/05 03:48:37;;;;;;;;;;;12.10;80.20;;;11.06;73.80;96690.84;4957497;28;19922;-88
2023/05/05 03:51:05;;;;;;;;;;;12.00;80.10;;;11.07;73.84;96697.97;4990244;28;19922;-88
2023/05/05 03:53:35;;;;;;;;;;;12.00;80.10;;;11.08;74.17;96693.31;4974343;28;19929;-88
2023/05/05 04:21:26;;;;;;;;;;;12.10;80.40;;;11.35;74.20;96710.53;4383740;32;20196;-85
2023/05/05 04:23:55;;;;;;;;;;;12.30;80.70;;;11.34;73.63;96708.88;4974949;28;2237628;-85
2023/05/05 04:26:23;;;;;;;;;;;12.30;80.40;;;11.34;73.84;96713.53;5070357;28;19920;-86
2023/05/05 04:28:52;;;;;;;;;;;12.30;80.40;;;11.32;73.95;96719.25;5070027;28;19927;-85
2023/05/05 04:31:21;;;;;;;;;;;12.20;80.40;;;11.31;74.02;96714.88;5069215;28;19920;-86
2023/05/05 04:33:49;;;;;;;;;;;12.20;80.40;;;11.32;74.06;96718.44;5070109;28;19921;-83
2023/05/05 04:36:18;;;;;;;;;;;12.20;80.30;;;11.30;73.84;96713.22;5069871;28;20134;-84
2023/05/05 04:38:48;;;;;;;;;;;12.20;80.40;;;11.31;74.01;96723.09;5070027;28;20230;-83
2023/05/05 04:41:16;;;;;;;;;;;12.30;80.60;;;11.32;74.07;96722.00;5069205;28;19920;-83
2023/05/05 04:43:45;;;;;;;;;;;12.30;80.80;;;11.32;73.92;96722.00;5069959;28;20208;-84
2023/05/05 04:46:16;;;;;;;;;;;12.30;80.40;;;11.32;74.00;96721.19;5069949;28;19920;-84
2023/05/05 04:48:44;;;;;;;;;;;12.20;80.60;;;11.30;73.90;96720.63;5069997;28;19920;-85
2023/05/05 04:51:12;;;;;;;;;;;12.20;80.50;;;11.31;74.06;96720.34;5069099;28;19927;-84
2023/05/05 04:53:41;;;;;;;;;;;12.20;80.80;;;11.32;74.45;96727.50;5069841;28;19935;-85
2023/05/05 04:56:10;;;;;;;;;;;12.20;80.90;;;11.33;74.16;96723.66;5087546;28;19921;-85
2023/05/05 04:58:40;;;;;;;;;;;12.30;81.10;;;11.36;74.61;96723.16;5052640;28;20211;-84
2023/05/05 05:01:08;;;;;;;;;;;12.30;81.20;;;11.40;74.22;96728.91;5069022;28;20211;-85
2023/05/05 05:03:36;;;;;;;;;;;12.30;81.00;;;11.46;74.42;96724.28;5087487;28;19927;-85
2023/05/05 05:06:04;;;;;;;;;;;12.40;80.80;;;11.51;73.69;96729.84;5069579;28;19926;-84
2023/05/05 05:08:32;;;;;;;;;;;12.50;80.60;;;11.57;73.59;96733.44;5069691;28;19920;-84
2023/05/05 05:11:01;;;;;;;;;;;12.50;80.30;;;11.59;73.80;96734.81;5068792;28;19927;-85
2023/05/05 05:13:30;;;;;;;;;;;12.50;80.10;;;11.62;73.19;96737.03;5066206;28;19924;-84
2023/05/05 05:15:58;;;;;;;;;;;12.50;79.70;;;11.62;73.44;96733.44;5067148;28;19927;-84
2023/05/05 05:18:26;;;;;;;;;;;12.50;79.60;;;11.62;73.03;96731.53;5049280;28;19927;-85
2023/05/05 05:20:55;;;;;;;;;;;12.60;79.40;;;11.61;73.23;96735.38;5043782;28;19920;-85
2023/05/05 05:23:23;;;;;;;;;;;12.60;79.50;;;11.61;73.32;96737.31;5052658;28;19921;-84
2023/05/05 05:25:51;;;;;;;;;;;12.60;79.40;;;11.58;72.88;96746.88;5019435;28;19943;-84
2023/05/05 05:28:21;;;;;;;;;;;12.50;79.40;;;11.55;73.29;96744.69;5052426;28;19927;-84
2023/05/05 05:30:55;;;;;;;;;;;12.50;79.70;;;11.55;73.25;96747.41;5051843;28;19921;-84
2023/05/05 05:33:23;;;;;;;;;;;12.50;80.00;;;11.52;73.41;96736.97;5036051;28;19928;-84
2023/05/05 05:35:52;;;;;;;;;;;12.50;80.10;;;11.52;73.56;96747.94;5035942;28;19921;-84
2023/05/05 05:38:22;;;;;;;;;;;12.50;79.80;;;11.52;73.21;96754.22;5035814;28;19921;-85
2023/05/05 05:40:54;;;;;;;;;;;12.50;79.90;;;11.53;73.48;96749.59;5051832;28;19927;-84
2023/05/05 05:43:22;;;;;;;;;;;12.50;80.00;;;11.54;73.23;96750.41;5052393;28;19936;-85
2023/05/05 05:45:51;;;;;;;;;;;12.40;79.70;;;11.55;73.28;96744.69;5035755;28;19921;-85
2023/05/05 05:48:23;;;;;;;;;;;12.50;79.80;;;11.56;73.22;96749.03;5018872;28;19928;-85
2023/05/05 05:50:52;;;;;;;;;;;12.50;80.60;;;11.57;73.33;96756.19;5051517;28;19921;-84
2023/05/05 05:53:20;;;;;;;;;;;12.50;79.70;;;11.59;73.26;96761.41;5035159;28;20209;-85
2023/05/05 05:55:49;;;;;;;;;;;12.50;79.60;;;11.64;73.11;96756.78;5052119;28;19921;-84
2023/05/05 05:58:18;;;;;;;;;;;12.60;79.70;;;11.66;72.84;96759.25;5035647;28;19929;-84
2023/05/05 06:00:47;;;;;;;;;;;12.60;79.30;;;11.69;72.76;96752.41;5035047;28;20208;-83
2023/05/05 06:03:16;;;;;;;;;;;12.60;79.20;;;11.68;72.83;96756.28;5035622;28;19921;-84
2023/05/05 06:05:46;;;;;;;;;;;12.60;79.10;;;11.70;72.72;96756.81;5035520;28;19920;-84
2023/05/05 06:08:15;;;;;;;;;;;12.60;79.20;;;11.79;72.86;96758.00;5035289;28;20204;-83
2023/05/05 06:10:48;;;;;;;;;;;12.70;79.50;;;11.91;72.60;96758.63;5034555;28;19927;-84
2023/05/05 06:13:20;;;;;;;;;;;12.70;79.20;;;12.03;72.30;96749.38;5055365;28;19920;-83
2023/05/05 06:15:51;;;;;;;;;;;12.90;79.00;;;12.13;72.08;96752.16;5055297;28;19927;-84
2023/05/05 06:18:19;;;;;;;;;;;13.00;78.60;;;12.20;71.30;96747.25;5055029;28;19927;-84
2023/05/05 06:20:51;;;;;;;;;;;13.00;78.20;;;12.24;71.26;96748.38;5054387;28;19921;-84
2023/05/05 06:23:20;;;;;;;;;;;13.10;77.80;;;12.31;71.14;96752.81;5054903;28;19920;-84
2023/05/05 06:25:54;;;;;;;;;;;13.20;77.70;;;12.31;70.92;96758.28;5055230;28;20250;-84
2023/05/05 06:28:22;;;;;;;;;;;13.20;77.30;;;12.28;70.70;96760.47;5054850;28;20208;-83
2023/05/05 06:30:50;;;;;;;;;;;13.20;77.10;;;12.23;71.08;96754.13;5017062;28;19927;-83
2023/05/05 06:33:18;;;;;;;;;;;13.20;77.00;;;12.19;71.07;96751.09;5033866;28;20208;-83
2023/05/05 06:35:48;;;;;;;;;;;13.10;77.10;;;12.14;71.33;96753.81;5052687;28;19921;-83
2023/05/05 06:38:17;;;;;;;;;;;13.10;77.20;;;12.09;71.52;96751.03;5034922;28;19927;-84
2023/05/05 06:40:47;;;;;;;;;;;13.10;77.40;;;12.06;71.38;96757.09;5034243;28;19921;-84
2023/05/05 06:43:15;;;;;;;;;;;13.00;77.50;;;12.02;71.55;96762.25;5034695;28;19921;-84
2023/05/05 06:45:48;;;;;;;;;;;13.00;77.60;;;11.99;71.85;96757.31;5034908;28;19921;-84
2023/05/05 06:48:16;;;;;;;;;;;13.00;77.80;;;11.95;71.74;96751.47;5052347;28;19927;-84
2023/05/05 06:50:44;;;;;;;;;;;12.90;77.90;;;11.93;71.87;96753.69;5033979;28;19929;-84
2023/05/05 06:53:12;;;;;;;;;;;12.90;78.10;;;11.91;72.16;96753.13;5034789;28;19920;-84
2023/05/05 06:55:43;;;;;;;;;;;12.90;78.20;;;11.89;71.75;96758.03;5018266;28;19921;-84
2023/05/05 06:58:11;;;;;;;;;;;12.90;78.30;;;11.86;72.16;96753.09;5017715;28;19921;-84
2023/05/05 07:00:39;;;;;;;;;;;12.80;78.20;;;11.85;71.92;96759.66;5034126;28;20212;-84
2023/05/05 07:03:07;;;;;;;;;;;12.80;78.30;;;11.84;72.04;96760.75;5033942;28;19927;-84
2023/05/05 07:05:35;;;;;;;;;;;12.80;78.30;;;11.82;72.34;96754.69;5034835;28;19927;-84
2023/05/05 07:08:03;;;;;;;;;;;12.80;78.40;;;11.82;72.21;96757.44;5034364;28;19921;-84
2023/05/05 07:10:31;;;;;;;;;;;12.80;78.40;;;11.82;72.10;96762.91;5051264;28;19929;-83
2023/05/05 07:13:00;;;;;;;;;;;12.80;78.40;;;11.81;72.36;96753.06;5033810;28;19927;-84
2023/05/05 07:15:28;;;;;;;;;;;12.80;78.50;;;11.82;72.32;96760.19;5034431;28;19927;-84
2023/05/05 07:17:56;;;;;;;;;;;12.80;78.50;;;11.81;72.24;96761.31;5034353;28;19927;-84
2023/05/05 07:20:25;;;;;;;;;;;12.70;78.50;;;11.79;72.39;96758.81;5017079;28;19943;-84
2023/05/05 07:22:53;;;;;;;;;;;12.80;78.50;;;11.81;72.15;96764.84;5034180;28;19925;-84
2023/05/05 07:25:21;;;;;;;;;;;12.80;78.50;;;11.77;72.41;96750.00;5051897;28;19931;-84
2023/05/05 07:27:49;;;;;;;;;;;12.80;78.50;;;11.79;72.40;96755.25;5051937;28;20200;-84
2023/05/05 07:30:19;;;;;;;;;;;12.80;78.50;;;11.79;72.51;96758.00;5033531;28;19920;-84
2023/05/05 07:32:47;;;;;;;;;;;12.80;78.60;;;11.77;72.40;96754.69;5051789;28;19921;-84
2023/05/05 07:35:15;;;;;;;;;;;12.80;78.60;;;11.78;72.22;96754.41;5051652;28;19927;-84
2023/05/05 07:37:43;;;;;;;;;;;12.70;78.50;;;11.76;72.21;96762.06;5034107;28;19920;-84
2023/05/05 07:40:12;;;;;;;;;;;12.70;78.50;;;11.77;72.60;96758.22;5023482;28;19935;-83
2023/05/05 07:42:40;;;;;;;;;;;12.70;78.60;;;11.77;72.31;96760.16;5071554;28;19920;-84
2023/05/05 07:45:08;;;;;;;;;;;12.70;78.50;;;11.76;72.15;96758.50;5070155;28;19921;-84
2023/05/05 07:47:39;;;;;;;;;;;12.70;78.50;;;11.77;72.11;96771.13;5053338;28;20216;-84
2023/05/05 07:50:07;;;;;;;;;;;12.70;78.50;;;11.77;72.17;96763.72;5069570;28;19920;-83
2023/05/05 07:52:35;;;;;;;;;;;12.70;78.40;;;11.76;71.96;96764.81;5070410;28;19920;-84
2023/05/05 07:55:04;;;;;;;;;;;12.70;78.50;;;11.75;72.40;96757.66;5070295;28;19927;-84
2023/05/05 07:57:32;;;;;;;;;;;12.70;78.40;;;11.75;72.13;96759.59;5070404;28;19921;-84
2023/05/05 08:00:00;;;;;;;;;;;12.70;78.40;;;11.75;72.16;96767.81;5069502;28;19920;-84
2023/05/05 08:02:28;;;;;;;;;;;12.70;78.40;;;11.75;72.49;96767.81;5070272;28;19920;-83
2023/05/05 08:04:57;;;;;;;;;;;12.70;78.40;;;11.75;72.43;96770.56;5070034;28;19943;-83
2023/05/05 08:07:25;;;;;;;;;;;12.70;78.50;;;11.76;72.02;96774.97;5051276;28;19927;-84
2023/05/05 08:09:53;;;;;;;;;;;12.70;78.50;;;11.77;72.38;96779.38;5032794;28;19931;-84
2023/05/05 08:12:21;;;;;;;;;;;12.70;78.50;;;11.77;72.21;96771.94;5035791;28;19943;-84
2023/05/05 08:14:49;;;;;;;;;;;12.70;78.50;;;11.76;72.12;96766.75;5053477;28;20119;-83
2023/05/05 08:17:17;;;;;;;;;;;12.70;78.50;;;11.78;72.13;96772.78;5071012;28;19920;-83
2023/05/05 08:19:45;;;;;;;;;;;12.70;78.40;;;11.79;72.06;96768.97;5036163;28;19921;-83
2023/05/05 08:22:14;;;;;;;;;;;12.80;78.40;;;11.80;72.24;96773.34;5070374;28;19936;-83
2023/05/05 08:24:42;;;;;;;;;;;12.80;78.40;;;11.81;72.11;96775.81;5053220;28;19920;-83
2023/05/05 08:27:10;;;;;;;;;;;12.80;78.40;;;11.83;71.98;96772.81;5053323;28;19920;-83
2023/05/05 08:29:38;;;;;;;;;;;12.80;78.40;;;11.85;72.17;96773.38;5036301;28;19922;-83
2023/05/05 08:32:06;;;;;;;;;;;12.80;78.30;;;11.87;72.20;96770.38;5052697;28;19927;-83
2023/05/05 08:34:34;;;;;;;;;;;12.80;78.20;;;11.87;72.03;96771.19;5052965;28;19927;-83
2023/05/05 08:37:02;;;;;;;;;;;12.80;78.20;;;11.88;71.61;96778.34;5036417;28;19927;-83
2023/05/05 08:39:32;;;;;;;;;;;12.80;77.80;;;11.90;71.80;96773.41;5070825;28;19921;-83
2023/05/05 08:42:00;;;;;;;;;;;12.80;78.00;;;11.91;71.83;96772.31;5035748;28;19927;-84
2023/05/05 08:44:28;;;;;;;;;;;12.90;78.10;;;11.91;71.62;96772.31;5036465;28;19927;-84
2023/05/05 08:46:56;;;;;;;;;;;12.90;78.10;;;11.94;71.55;96770.97;5052980;28;19920;-83
2023/05/05 08:49:24;;;;;;;;;;;12.90;77.90;;;11.94;71.49;96766.28;5036386;28;20085;-83
2023/05/05 08:51:52;;;;;;;;;;;12.90;77.90;;;11.95;71.67;96767.94;5035654;28;19920;-84
2023/05/05 08:54:20;;;;;;;;;;;12.90;77.90;;;11.95;71.35;96776.19;5052793;28;20118;-83
2023/05/05 08:56:50;;;;;;;;;;;12.90;77.80;;;11.95;71.36;96773.44;5038087;28;19921;-84
2023/05/05 08:59:18;;;;;;;;;;;12.90;77.70;;;11.95;71.08;96778.09;5056160;28;19920;-83
2023/05/05 09:01:46;;;;;;;;;;;12.90;77.40;;;11.95;71.41;96787.16;5038783;28;19926;-83
2023/05/05 09:04:14;;;;;;;;;;;12.90;77.60;;;11.95;71.54;96778.09;5039437;28;19924;-83
2023/05/05 09:06:42;;;;;;;;;;;12.90;77.60;;;11.93;71.57;96778.38;5074086;28;19927;-83
2023/05/05 09:09:10;;;;;;;;;;;12.90;77.60;;;11.93;71.46;96781.13;5056175;28;19920;-84
2023/05/05 09:11:38;;;;;;;;;;;12.90;77.70;;;11.92;71.65;96779.47;5073356;28;19921;-83
2023/05/05 09:14:08;;;;;;;;;;;12.90;77.60;;;11.91;71.40;96777.81;5073331;28;19920;-84
2023/05/05 09:16:36;;;;;;;;;;;12.90;77.60;;;11.91;71.44;96776.97;5039526;28;20115;-83
2023/05/05 09:19:04;;;;;;;;;;;12.90;77.70;;;11.91;71.32;96775.06;5055915;28;19927;-83
2023/05/05 09:21:32;;;;;;;;;;;12.90;77.70;;;11.90;71.33;96776.16;5055222;28;19927;-83
2023/05/05 09:24:10;;;;;;;;;;;12.90;77.80;;;11.90;71.74;96778.91;5055757;28;19921;-83
2023/05/05 09:26:38;;;;;;;;;;;12.90;77.70;;;11.92;71.70;96779.47;5072577;28;19927;-84
2023/05/05 09:29:07;;;;;;;;;;;12.90;77.80;;;11.91;71.61;96780.56;5055778;28;19920;-83
2023/05/05 09:31:36;;;;;;;;;;;12.90;77.80;;;11.92;71.42;96776.72;5055213;28;19939;-84
2023/05/05 09:34:14;;;;;;;;;;;12.90;77.80;;;11.93;71.49;96777.53;5055618;28;19927;-84
2023/05/05 09:36:43;;;;;;;;;;;12.90;77.80;;;11.93;71.41;96767.41;5072601;28;19927;-84
2023/05/05 09:39:11;;;;;;;;;;;12.90;77.80;;;11.95;71.57;96773.44;5072290;28;19921;-84
2023/05/05 09:41:39;;;;;;;;;;;12.90;77.70;;;11.96;71.46;96775.09;5054773;28;19920;-84
2023/05/05 09:44:09;;;;;;;;;;;12.90;77.60;;;11.97;71.46;96768.50;5072393;28;19921;-84
2023/05/05 09:46:37;;;;;;;;;;;12.90;77.70;;;11.99;71.30;96767.44;5055553;28;19921;-85
2023/05/05 09:49:13;;;;;;;;;;;12.90;77.60;;;12.00;71.54;96766.38;5055466;28;19927;-84
2023/05/05 09:51:41;;;;;;;;;;;12.90;77.60;;;12.00;71.41;96769.94;5054985;28;19921;-84
2023/05/05 09:54:09;;;;;;;;;;;12.90;77.50;;;12.01;71.21;96771.56;5055627;28;19927;-84
2023/05/05 09:56:39;;;;;;;;;;;13.00;77.40;;;12.01;71.58;96774.31;5055462;28;19921;-84
2023/05/05 09:59:11;;;;;;;;;;;13.00;77.40;;;12.04;71.25;96768.31;5073081;28;19921;-84
2023/05/05 10:01:42;;;;;;;;;;;13.00;77.40;;;12.05;71.04;96771.88;5071480;28;19920;-84
2023/05/05 10:04:22;;;;;;;;;;;13.00;77.40;;;12.05;71.41;96771.88;5072157;28;19921;-84
2023/05/05 10:06:50;;;;;;;;;;;13.00;77.30;;;12.06;71.06;96768.06;5055063;28;19942;-84
2023/05/05 10:09:18;;;;;;;;;;;13.00;77.30;;;12.07;71.04;96764.22;5055113;28;19921;-84
2023/05/05 10:11:47;;;;;;;;;;;13.00;77.30;;;12.08;71.16;96765.84;5054542;28;19920;-85
2023/05/05 10:14:16;;;;;;;;;;;13.00;77.20;;;12.07;71.05;96766.97;5037269;28;20217;-85
2023/05/05 10:16:47;;;;;;;;;;;13.00;77.20;;;12.07;71.06;96765.03;5018877;28;19920;-85
2023/05/05 10:19:16;;;;;;;;;;;13.00;77.20;;;12.09;71.32;96756.53;5052949;28;19920;-85
2023/05/05 10:21:47;;;;;;;;;;;13.00;77.20;;;12.09;71.06;96751.03;5034415;28;19921;-85
2023/05/05 10:24:24;;;;;;;;;;;13.00;77.20;;;12.09;71.31;96751.03;5018755;28;20095;-85
2023/05/05 10:26:52;;;;;;;;;;;13.00;77.10;;;12.10;71.29;96759.03;5018730;28;20212;-85
2023/05/05 10:29:27;;;;;;;;;;;13.00;77.20;;;12.10;71.03;96752.69;5018665;28;19921;-84
2023/05/05 10:31:55;;;;;;;;;;;13.00;77.10;;;12.10;71.22;96747.19;5018006;28;19920;-85
2023/05/05 10:34:24;;;;;;;;;;;13.00;77.10;;;12.11;71.19;96748.84;5018660;28;20124;-84
2023/05/05 10:36:54;;;;;;;;;;;13.00;77.10;;;12.10;71.26;96747.19;5018358;28;20011;-84
2023/05/05 10:39:22;;;;;;;;;;;13.00;77.10;;;12.11;70.97;96746.94;5018390;28;19921;-84
2023/05/05 10:41:49;;;;;;;;;;;13.10;77.20;;;12.12;70.97;96748.59;5034042;28;19921;-84
2023/05/05 10:44:17;;;;;;;;;;;13.10;77.10;;;12.13;71.23;96741.19;5052478;28;19921;-84
2023/05/05 10:46:47;;;;;;;;;;;13.10;77.10;;;12.13;70.77;96735.69;5034909;28;19928;-84
2023/05/05 10:49:19;;;;;;;;;;;13.10;77.10;;;12.13;70.97;96738.44;5018173;28;19921;-84
2023/05/05 10:51:51;;;;;;;;;;;13.10;77.10;;;12.13;71.01;96735.69;5017608;28;19921;-83
2023/05/05 10:54:22;;;;;;;;;;;13.10;77.10;;;12.14;71.00;96734.59;5034723;28;20209;-85
2023/05/05 10:56:51;;;;;;;;;;;13.10;77.20;;;12.14;71.07;96737.34;5018112;28;19927;-84
2023/05/05 10:59:46;;;;;;;;;;;13.10;77.20;;;12.18;70.96;96726.66;5018128;28;19927;-84
2023/05/05 11:02:26;;;;;;;;;;;13.10;77.20;;;12.19;71.09;96733.78;4983317;28;19927;-84
2023/05/05 11:05:21;;;;;;;;;;;13.10;77.10;;;12.20;70.99;96727.22;5018034;28;19928;-84
2023/05/05 11:07:49;;;;;;;;;;;13.10;77.00;;;12.22;71.22;96727.78;5018249;28;19931;-84
2023/05/05 11:10:19;;;;;;;;;;;13.20;76.90;;;12.22;70.65;96722.28;5033792;28;19927;-84
2023/05/05 11:13:18;;;;;;;;;;;13.20;76.80;;;12.24;70.95;96722.84;5039978;28;20208;-85
2023/05/05 11:15:47;;;;;;;;;;;13.20;76.80;;;12.21;70.98;96721.44;5054164;28;19920;-84
2023/05/05 11:18:37;;;;;;;;;;;13.20;76.80;;;12.22;71.05;96714.88;5037587;28;20238;-84
2023/05/05 11:21:15;;;;;;;;;;;13.20;76.80;;;12.22;71.11;96717.63;5036772;28;19927;-84
2023/05/05 11:23:46;;;;;;;;;;;13.20;76.90;;;12.22;70.99;96706.63;5037527;28;20208;-84
2023/05/05 11:26:15;;;;;;;;;;;13.20;76.90;;;12.23;70.89;96710.22;5054064;28;19927;-84
2023/05/05 11:28:57;;;;;;;;;;;13.20;76.90;;;12.23;70.86;96701.97;5037387;28;19920;-84
2023/05/05 11:31:25;;;;;;;;;;;13.20;76.90;;;12.22;71.04;96692.91;5036638;28;19920;-84
2023/05/05 11:33:54;;;;;;;;;;;13.20;76.80;;;12.24;70.86;96693.47;5037366;28;19927;-84
2023/05/05 11:36:38;;;;;;;;;;;13.20;76.80;;;12.25;71.03;96697.88;5053755;28;19920;-84
2023/05/05 11:39:09;;;;;;;;;;;13.20;76.80;;;12.27;71.02;96692.09;5053937;28;19921;-84
2023/05/05 11:41:57;;;;;;;;;;;13.20;76.80;;;12.28;70.71;96694.59;5052838;28;19920;-84
2023/05/05 11:44:32;;;;;;;;;;;13.20;76.70;;;12.29;70.56;96689.91;5053935;28;19920;-84
2023/05/05 11:47:29;;;;;;;;;;;13.20;76.60;;;12.30;70.74;96686.06;5037140;28;19921;-84
2023/05/05 11:49:58;;;;;;;;;;;13.30;76.70;;;12.30;70.76;96683.31;5053092;28;19938;-84
2023/05/05 11:52:26;;;;;;;;;;;13.30;76.60;;;12.31;70.56;96681.41;5053741;28;19921;-84
2023/05/05 11:55:01;;;;;;;;;;;13.30;76.60;;;12.30;70.62;96672.34;5037117;28;19927;-84